createdAt,value
2023-04-20T00:05:27.031Z,76.37
2023-04-20T00:12:28.802Z,76.89
2023-04-20T00:19:33.120Z,76.97
2023-04-20T00:26:34.696Z,76.99
2023-04-20T00:33:36.389Z,77.29
2023-04-20T00:40:37.974Z,76.71
2023-04-20T00:47:39.614Z,76.63
2023-04-20T00:54:41.206Z,76.43
2023-04-20T01:01:43.869Z,75.92
2023-04-20T01:08:49.593Z,76.34
2023-04-20T01:15:51.244Z,75.58
2023-04-20T01:22:54.467Z,75.77
2023-04-20T01:29:56.244Z,78.32
2023-04-20T01:36:57.946Z,76.58
2023-04-20T01:43:59.577Z,77.04
2023-04-20T01:51:01.204Z,78.22
2023-04-20T01:58:02.770Z,78.96
2023-04-20T02:14:03.809Z,77.90
2023-04-20T02:21:06.137Z,77.28
2023-04-20T02:28:07.892Z,75.53
2023-04-20T02:35:09.923Z,75.93
2023-04-20T02:42:11.610Z,77.13
2023-04-20T02:49:15.517Z,76.62
2023-04-20T02:56:19.386Z,77.67
2023-04-20T03:03:28.071Z,77.79
2023-04-20T03:10:31.190Z,77.17
2023-04-20T03:17:39.835Z,77.77
2023-04-20T03:24:41.740Z,78.73
2023-04-20T03:32:15.608Z,79.43
2023-04-20T03:39:17.864Z,80.12
2023-04-20T03:46:22.043Z,79.98
2023-04-20T03:53:24.972Z,79.71
2023-04-20T04:00:27.655Z,79.67
2023-04-20T04:07:38.958Z,79.98
2023-04-20T04:14:40.940Z,80.03
2023-04-20T04:21:44.052Z,80.11
2023-04-20T04:28:47.088Z,80.37
2023-04-20T04:35:53.615Z,80.04
2023-04-20T04:42:55.807Z,80.91
2023-04-20T04:49:59.744Z,80.38
2023-04-20T04:57:03.790Z,80.24
2023-04-20T05:04:05.617Z,80.11
2023-04-20T05:11:07.348Z,79.78
2023-04-20T05:18:09.118Z,76.85
2023-04-20T05:25:13.808Z,76.57
2023-04-20T05:32:15.618Z,76.66
2023-04-20T05:39:17.671Z,76.50
2023-04-20T05:46:19.590Z,75.81
2023-04-20T05:53:22.078Z,79.27
2023-04-20T06:00:26.034Z,79.34
2023-04-20T06:07:27.887Z,77.50
2023-04-20T06:14:29.569Z,78.32
2023-04-20T06:21:31.704Z,77.97
2023-04-20T06:28:33.447Z,77.52
2023-04-20T06:35:35.154Z,77.56
2023-04-20T06:42:37.362Z,76.09
2023-04-20T06:49:39.483Z,76.30
2023-04-20T06:56:41.095Z,76.05
2023-04-20T07:03:43.552Z,76.22
2023-04-20T07:10:45.235Z,77.01
2023-04-20T07:17:46.855Z,75.36
2023-04-20T07:24:48.530Z,73.12
2023-04-20T07:31:50.247Z,73.03
2023-04-20T07:38:51.892Z,71.99
2023-04-20T07:45:53.551Z,69.25
2023-04-20T07:52:55.189Z,68.67
2023-04-20T07:59:56.845Z,69.28
2023-04-20T08:06:58.532Z,67.55
2023-04-20T08:14:00.368Z,69.03
2023-04-20T08:21:02.059Z,65.11
2023-04-20T08:28:04.228Z,65.61
2023-04-20T08:35:08.821Z,64.47
2023-04-20T08:42:10.684Z,64.48
2023-04-20T08:49:12.600Z,67.61
2023-04-20T08:56:14.207Z,67.97
2023-04-20T09:03:16.126Z,68.59
2023-04-20T09:10:17.912Z,70.48
2023-04-20T09:17:33.861Z,71.48
2023-04-20T09:24:37.105Z,70.60
2023-04-20T09:31:38.815Z,75.21
2023-04-20T09:38:40.567Z,76.01
2023-04-20T09:45:42.214Z,74.61
2023-04-20T09:52:44.179Z,74.90
2023-04-20T09:59:46.574Z,73.48
2023-04-20T10:06:55.588Z,71.63
2023-04-20T10:13:57.990Z,70.76
2023-04-20T10:21:11.439Z,68.80
2023-04-20T10:28:13.147Z,66.59
2023-04-20T10:35:16.190Z,63.00
2023-04-20T10:42:18.290Z,56.64
2023-04-20T10:49:20.219Z,53.11
2023-04-20T10:56:21.919Z,49.77
2023-04-20T11:03:23.621Z,47.69
2023-04-20T11:10:46.431Z,53.75
2023-04-20T11:17:48.121Z,54.59
2023-04-20T11:24:50.245Z,53.45
2023-04-20T11:31:52.106Z,56.58
2023-04-20T11:38:53.947Z,55.08
2023-04-20T11:45:55.653Z,54.98
2023-04-20T11:52:57.239Z,54.75
2023-04-20T11:59:58.887Z,54.08
2023-04-20T12:07:02.084Z,53.93
2023-04-20T12:14:04.867Z,50.20
2023-04-20T12:21:06.569Z,50.42
2023-04-20T12:28:08.298Z,47.94
2023-04-20T12:35:10.250Z,47.54
2023-04-20T12:42:11.913Z,48.18
2023-04-20T12:49:13.488Z,46.81
2023-04-20T12:56:15.299Z,46.61
2023-04-20T13:03:17.082Z,45.76
2023-04-20T13:10:23.538Z,46.34
2023-04-20T13:17:28.354Z,47.91
2023-04-20T13:24:30.131Z,49.04
2023-04-20T13:31:33.333Z,45.59
2023-04-20T13:38:34.954Z,47.08
2023-04-20T13:45:36.851Z,47.77
2023-04-20T13:52:39.587Z,48.02
2023-04-20T13:59:41.233Z,47.98
2023-04-20T14:06:43.044Z,47.95
2023-04-20T14:13:44.829Z,46.97
2023-04-20T14:20:46.596Z,46.81
2023-04-20T14:27:48.114Z,47.43
2023-04-20T14:34:49.666Z,45.91
2023-04-20T14:41:51.290Z,47.29
2023-04-20T14:48:52.928Z,46.68
2023-04-20T14:55:54.857Z,45.97
2023-04-20T15:02:56.834Z,46.34
2023-04-20T15:09:58.529Z,45.69
2023-04-20T15:17:00.093Z,45.69
2023-04-20T15:24:01.727Z,45.48
2023-04-20T15:31:03.298Z,45.57
2023-04-20T15:38:05.006Z,46.51
2023-04-20T15:45:07.129Z,46.53
2023-04-20T15:52:08.702Z,46.23
2023-04-20T15:59:10.236Z,45.43
2023-04-20T16:06:12.355Z,46.43
2023-04-20T16:13:13.879Z,47.24
2023-04-20T16:20:15.435Z,47.05
2023-04-20T16:27:17.235Z,46.79
2023-04-20T16:34:19.661Z,46.58
2023-04-20T16:41:21.821Z,47.27
2023-04-20T16:48:23.456Z,48.31
2023-04-20T16:55:26.057Z,48.07
2023-04-20T17:02:32.795Z,47.81
2023-04-20T17:09:34.684Z,47.06
2023-04-20T17:16:36.289Z,47.95
2023-04-20T17:23:37.883Z,48.61
2023-04-20T17:30:40.859Z,49.04
2023-04-20T17:37:42.600Z,49.54
2023-04-20T17:44:44.133Z,50.53
2023-04-20T17:51:45.765Z,50.75
2023-04-20T17:58:48.231Z,51.78
2023-04-20T18:05:49.810Z,51.35
2023-04-20T18:12:51.875Z,52.34
2023-04-20T18:19:53.818Z,53.56
2023-04-20T18:26:55.349Z,53.72
2023-04-20T18:33:57.020Z,54.72
2023-04-20T18:40:59.745Z,55.65
2023-04-20T18:48:01.440Z,55.31
2023-04-20T18:55:03.925Z,56.56
2023-04-20T19:02:05.875Z,56.04
2023-04-20T19:09:08.312Z,55.75
2023-04-20T19:16:11.140Z,55.62
2023-04-20T19:23:12.725Z,55.16
2023-04-20T19:30:14.359Z,55.71
2023-04-20T19:37:15.979Z,55.54
2023-04-20T19:44:17.671Z,56.17
2023-04-20T19:51:19.418Z,56.59
2023-04-20T19:58:21.004Z,57.94
2023-04-20T20:05:22.661Z,57.19
2023-04-20T20:12:24.194Z,56.80
2023-04-20T20:19:25.852Z,57.20
2023-04-20T20:26:27.457Z,57.50
2023-04-20T20:33:28.983Z,57.75
2023-04-20T20:40:31.195Z,58.19
2023-04-20T20:47:33.564Z,58.21
2023-04-20T20:54:35.225Z,57.78
2023-04-20T21:01:36.961Z,58.22
2023-04-20T21:08:38.979Z,57.32
2023-04-20T21:15:40.875Z,57.25
2023-04-20T21:22:42.472Z,57.55
2023-04-20T21:29:44.028Z,57.79
2023-04-20T21:36:45.838Z,58.23
2023-04-20T21:43:47.434Z,56.94
2023-04-20T21:50:49.017Z,57.50
2023-04-20T21:57:50.638Z,57.96
2023-04-20T22:04:52.410Z,57.57
2023-04-20T22:11:54.146Z,58.40
2023-04-20T22:18:55.814Z,58.55
2023-04-20T22:25:57.373Z,57.49
2023-04-20T22:32:58.986Z,58.07
2023-04-20T22:40:00.684Z,58.32
2023-04-20T22:47:02.446Z,58.92
2023-04-20T22:54:04.262Z,59.35
2023-04-20T23:01:05.951Z,59.26
2023-04-20T23:08:07.660Z,59.06
2023-04-20T23:15:09.580Z,58.10
2023-04-20T23:22:11.160Z,59.02
2023-04-20T23:29:12.722Z,58.89
2023-04-20T23:36:14.332Z,58.91
2023-04-20T23:43:15.915Z,59.75
2023-04-20T23:50:17.540Z,59.69
2023-04-20T23:57:19.048Z,59.66
